Sandra Hugh — WDD9019 — position and weather

sailwx.info

Track history (hours):
 
Tides and Currents Weather Stations Pressure Air Temp Water Temp Dewpoint Dewpoint Depression Visibility Wind Speed Wind Dir Waves Ship Positions

Sandra Hugh

Owner: Sortwell Inc., DBA AmNav Maritime Services, Oakland, CA. More information available from US FCC via Universal Licensing System and Coast Guard Vessel Documentation Center.

Last reported at 2015-Apr-18 06:33 UTC. Time now 2015-Apr-18 07:17 UTC.
Position N 37°49' W 122°20'.

Length 24 m; draft 4.9 m.

Type: Tug. MMSI: 367305920.

Date/timePositionNaut miles runAvg speedWind from/ knotsBaromVisibWave heightAir tempDewpointWater temp
2015-Apr-18 06:33N 37°49' W 122°20'7 7.1
2015-Apr-18 05:33N 37°49' W 122°29'3 3.0
2015-Apr-18 04:33N 37°51' W 122°26'5 4.6
2015-Apr-18 03:31N 37°55' W 122°25'1 1.4
2015-Apr-18 02:32N 37°54' W 122°23'1 1.1
2015-Apr-18 01:33N 37°55' W 122°22'0 0.0
2015-Apr-18 00:30N 37°55' W 122°22'6 6.4
2015-Apr-17 23:33N 38°00' W 122°24'13 2.1
2015-Apr-17 17:32N 38°02' W 122°08'0 0.0
2015-Apr-17 07:33N 38°02' W 122°08'0 0.0
2015-Apr-16 08:20N 38°02' W 122°08'5 0.3
2015-Apr-15 13:32N 38°04' W 122°15'9 8.7
2015-Apr-15 12:33N 38°00' W 122°25'9 9.0
2015-Apr-15 11:33N 37°51' W 122°24'4 4.3
2015-Apr-15 10:33N 37°49' W 122°19'0 0.0
2015-Apr-15 09:33N 37°49' W 122°19'0 0.0
2015-Apr-15 08:33N 37°49' W 122°19'0 0.0
2015-Apr-15 07:33N 37°49' W 122°19'0 0.0
2015-Apr-15 06:30N 37°49' W 122°19'0 0.0
2015-Apr-15 05:33N 37°49' W 122°19'0 0.0
2015-Apr-15 04:33N 37°49' W 122°19'0 0.0
2015-Apr-15 03:33N 37°49' W 122°19'0 0.0
2015-Apr-15 02:33N 37°49' W 122°19'1 1.4
2015-Apr-15 01:33N 37°49' W 122°20'2 2.2
2015-Apr-15 00:29N 37°48' W 122°18'0 0.1
2015-Apr-14 23:33N 37°48' W 122°18'2 1.9
2015-Apr-14 22:33N 37°49' W 122°19'1 0.7
2015-Apr-14 21:33N 37°49' W 122°19'0 0.0
2015-Apr-14 20:33N 37°49' W 122°19'0 0.0
2015-Apr-14 19:33N 37°49' W 122°19'0 0.0
2015-Apr-14 18:33N 37°49' W 122°19'0 0.0
2015-Apr-14 17:33N 37°49' W 122°19'0 0.0
2015-Apr-14 16:33N 37°49' W 122°19'0 0.0
2015-Apr-14 15:33N 37°49' W 122°19'2 1.5
2015-Apr-14 14:32N 37°48' W 122°19'1 1.5
2015-Apr-14 13:33N 37°48' W 122°17'4 3.6
2015-Apr-14 12:29N 37°47' W 122°22'3 2.8
2015-Apr-14 11:33N 37°49' W 122°19'0 0.5
2015-Apr-14 10:33N 37°49' W 122°20'1 1.2
2015-Apr-14 09:31N 37°49' W 122°19'0 0.0
2015-Apr-14 08:31N 37°49' W 122°19'0 0.0
2015-Apr-14 07:31N 37°49' W 122°19'0 0.0
2015-Apr-14 06:31N 37°49' W 122°19'0 0.0
2015-Apr-14 05:31N 37°49' W 122°19'0 0.0
2015-Apr-14 04:31N 37°49' W 122°19'0 0.0
2015-Apr-14 03:31N 37°49' W 122°19'0 0.0
2015-Apr-14 02:31N 37°49' W 122°19'0 0.0
2015-Apr-14 01:31N 37°49' W 122°19'0 0.0
2015-Apr-14 00:31N 37°49' W 122°19'0 0.0
2015-Apr-13 23:31N 37°49' W 122°19'0 0.0
2015-Apr-13 22:31N 37°49' W 122°19'0 0.0
2015-Apr-13 21:31N 37°49' W 122°19'0 0.0
2015-Apr-13 20:31N 37°49' W 122°19'0 0.0
2015-Apr-13 19:31N 37°49' W 122°19'0 0.0
2015-Apr-13 18:31N 37°49' W 122°19'0 0.0
2015-Apr-13 17:31N 37°49' W 122°19'0 0.0
2015-Apr-13 16:31N 37°49' W 122°19'0 0.0
2015-Apr-13 15:31N 37°49' W 122°19'0 0.0
2015-Apr-13 14:31N 37°49' W 122°19'3 2.6
2015-Apr-13 13:33N 37°48' W 122°22'3 2.6
2015-Apr-13 12:33N 37°49' W 122°19'0 0.0
2015-Apr-13 11:33N 37°49' W 122°19'0 0.0
2015-Apr-13 10:33N 37°49' W 122°19'0 0.0
2015-Apr-13 09:33N 37°49' W 122°19'0 0.0
2015-Apr-13 08:33N 37°49' W 122°19'0 0.0
2015-Apr-13 07:30N 37°49' W 122°19'0 0.0
2015-Apr-13 06:33N 37°49' W 122°19'0 0.0
2015-Apr-13 05:30N 37°49' W 122°19'0 0.0
2015-Apr-13 04:30N 37°49' W 122°19'0 0.0
2015-Apr-13 03:33N 37°49' W 122°19'0 0.0
2015-Apr-13 02:33N 37°49' W 122°19'2 1.6
2015-Apr-13 01:34N 37°48' W 122°20'1 0.9
2015-Apr-13 00:33N 37°48' W 122°19'2 1.7
2015-Apr-12 23:33N 37°49' W 122°19'0 0.0
2015-Apr-12 22:30N 37°49' W 122°19'0 0.0
2015-Apr-12 21:33N 37°49' W 122°19'0 0.0
2015-Apr-12 20:33N 37°49' W 122°19'0 0.0
2015-Apr-12 19:33N 37°49' W 122°19'0 0.0
2015-Apr-12 18:33N 37°49' W 122°19'0 0.0
2015-Apr-12 17:33N 37°49' W 122°19'0 0.0
2015-Apr-12 16:33N 37°49' W 122°19'0 0.0
2015-Apr-12 15:33N 37°49' W 122°19'0 0.0
2015-Apr-12 14:30N 37°49' W 122°19'4 4.4
2015-Apr-12 13:32N 37°48' W 122°24'1 0.7
2015-Apr-12 12:33N 37°49' W 122°25'5 4.7
2015-Apr-12 11:33N 37°49' W 122°19'0 0.0
2015-Apr-12 10:33N 37°49' W 122°19'0 0.0
2015-Apr-12 09:33N 37°49' W 122°19'0 0.0
2015-Apr-12 08:30N 37°49' W 122°19'0 0.0
2015-Apr-12 07:33N 37°49' W 122°19'0 0.0
2015-Apr-12 06:33N 37°49' W 122°19'0 0.0
2015-Apr-12 05:33N 37°49' W 122°19'0 0.0
2015-Apr-12 04:33N 37°49' W 122°19'0 0.0
2015-Apr-12 03:33N 37°49' W 122°19'0 0.0
2015-Apr-12 02:33N 37°49' W 122°19'1 0.8
2015-Apr-12 01:33N 37°49' W 122°19'1 0.8
2015-Apr-12 00:33N 37°49' W 122°19'0 0.0
2015-Apr-11 23:30N 37°49' W 122°19'0 0.0
2015-Apr-11 22:33N 37°49' W 122°19'0 0.0
2015-Apr-11 21:33N 37°49' W 122°19'0 0.0
2015-Apr-11 20:33N 37°49' W 122°19'0 0.0
2015-Apr-11 19:33N 37°49' W 122°19'0 0.0
2015-Apr-11 18:24N 37°49' W 122°19'0 0.0
2015-Apr-11 17:33N 37°49' W 122°19'0 0.0
2015-Apr-11 16:30N 37°49' W 122°19'0 0.1
2015-Apr-11 15:33N 37°49' W 122°19'0 0.0
2015-Apr-11 14:33N 37°49' W 122°19'0 0.0
2015-Apr-11 13:33N 37°49' W 122°19'0 0.0
2015-Apr-11 12:33N 37°49' W 122°19'0 0.0
2015-Apr-11 11:33N 37°49' W 122°19'0 0.0
2015-Apr-11 10:33N 37°49' W 122°19'0 0.0
2015-Apr-11 09:33N 37°49' W 122°19'0 0.0
2015-Apr-11 08:33N 37°49' W 122°19'0 0.0
2015-Apr-11 07:33N 37°49' W 122°19'0 0.0
2015-Apr-11 06:33N 37°49' W 122°19'0 0.0
2015-Apr-11 05:33N 37°49' W 122°19'0 0.0
2015-Apr-11 04:33N 37°49' W 122°19'0 0.0
2015-Apr-11 03:33N 37°49' W 122°19'0 0.0
2015-Apr-11 02:33N 37°49' W 122°19'0 0.0
2015-Apr-11 01:33N 37°49' W 122°19'0 0.0
2015-Apr-11 00:33N 37°49' W 122°19'0 0.0
2015-Apr-10 23:33N 37°49' W 122°19'0 0.0
2015-Apr-10 22:30N 37°49' W 122°19'0 0.0
2015-Apr-10 21:33N 37°49' W 122°19'0 0.0
2015-Apr-10 20:33N 37°49' W 122°19'0 0.0
2015-Apr-10 19:33N 37°49' W 122°19'0 0.0
2015-Apr-10 18:33N 37°49' W 122°19'0 0.0
2015-Apr-10 17:33N 37°49' W 122°19'0 0.0
2015-Apr-10 16:33N 37°49' W 122°19'0 0.0
2015-Apr-10 15:33N 37°49' W 122°19'0 0.0
2015-Apr-10 14:33N 37°49' W 122°19'0 0.0
2015-Apr-10 13:33N 37°49' W 122°19'0 0.0
2015-Apr-10 12:34N 37°49' W 122°19'3 2.6
2015-Apr-10 11:33N 37°48' W 122°22'1 1.1
2015-Apr-10 10:33N 37°49' W 122°20'0 0.3
2015-Apr-10 09:32N 37°49' W 122°20'1 1.0
2015-Apr-10 08:33N 37°49' W 122°19'0 0.3
2015-Apr-10 07:33N 37°49' W 122°19'0 0.0
2015-Apr-10 06:33N 37°49' W 122°19'0 0.0
2015-Apr-10 05:33N 37°49' W 122°19'0 0.0
2015-Apr-10 04:33N 37°49' W 122°19'0 0.0
2015-Apr-10 03:33N 37°49' W 122°19'0 0.0
2015-Apr-10 02:27N 37°49' W 122°19'0 0.0
2015-Apr-10 01:33N 37°49' W 122°19'0 0.0
2015-Apr-10 00:33N 37°49' W 122°19'5 4.9
2015-Apr-09 23:33N 37°46' W 122°23'0 0.1
2015-Apr-09 22:33N 37°46' W 122°23'1 1.4
2015-Apr-09 21:33N 37°47' W 122°22'3 3.4
2015-Apr-09 20:32N 37°49' W 122°19'0 0.0
2015-Apr-09 19:32N 37°49' W 122°19'0 0.0
2015-Apr-09 18:32N 37°49' W 122°19'0 0.0
2015-Apr-09 17:32N 37°49' W 122°19'0 0.0
2015-Apr-09 16:32N 37°49' W 122°19'0 0.0
2015-Apr-09 15:32N 37°49' W 122°19'0 0.0
2015-Apr-09 14:32N 37°49' W 122°19'0 0.0
2015-Apr-09 13:32N 37°49' W 122°19'0 0.0
2015-Apr-09 12:32N 37°49' W 122°19'0 0.0
2015-Apr-09 11:32N 37°49' W 122°19'1 0.8
2015-Apr-09 10:33N 37°49' W 122°20'0 0.4
2015-Apr-09 09:34N 37°49' W 122°19'0 0.4
2015-Apr-09 08:33N 37°49' W 122°19'0 0.0
2015-Apr-09 07:33N 37°49' W 122°19'0 0.0
2015-Apr-09 06:33N 37°49' W 122°19'0 0.0
2015-Apr-09 05:33N 37°49' W 122°19'0 0.2
2015-Apr-09 04:31N 37°49' W 122°19'2 2.5
2015-Apr-09 03:33N 37°48' W 122°22'1 0.9
2015-Apr-09 02:32N 37°48' W 122°21'2 1.7
2015-Apr-09 01:34N 37°49' W 122°19'0 0.1
2015-Apr-09 00:32N 37°49' W 122°19'0 0.2
2015-Apr-08 23:32N 37°49' W 122°19'0 0.0
2015-Apr-08 22:32N 37°49' W 122°19'3 2.6
2015-Apr-08 21:33N 37°48' W 122°22'3 2.4
2015-Apr-08 20:31N 37°49' W 122°19'0 0.0
2015-Apr-08 19:31N 37°49' W 122°19'0 0.0
2015-Apr-08 18:31N 37°49' W 122°19'0 0.0
2015-Apr-08 17:31N 37°49' W 122°19'0 0.0
2015-Apr-08 16:31N 37°49' W 122°19'0 0.0
2015-Apr-08 15:31N 37°49' W 122°19'0 0.0
2015-Apr-08 14:31N 37°49' W 122°19'0 0.0
2015-Apr-08 13:31N 37°49' W 122°19'0 0.0
2015-Apr-08 12:31N 37°49' W 122°19'0 0.0
2015-Apr-08 11:31N 37°49' W 122°19'0 0.0
2015-Apr-08 10:31N 37°49' W 122°19'0 0.0
2015-Apr-08 09:31N 37°49' W 122°19'0 0.0
2015-Apr-08 08:31N 37°49' W 122°19'0 0.0
2015-Apr-08 07:31N 37°49' W 122°19'  
Track history (hours):
 
Tides and Currents Weather Stations Pressure Air Temp Water Temp Dewpoint Dewpoint Depression Visibility Wind Speed Wind Dir Waves Ship Positions

Sandra Hugh

Owner: Sortwell Inc., DBA AmNav Maritime Services, Oakland, CA. More information available from US FCC via Universal Licensing System and Coast Guard Vessel Documentation Center.

Last reported at 2015-Apr-18 06:33 UTC. Time now 2015-Apr-18 07:17 UTC.
Position N 37°49' W 122°20'.

Length 24 m; draft 4.9 m.

Type: Tug. MMSI: 367305920.

Date/timePositionNaut miles runAvg speedWind from/ knotsBaromVisibWave heightAir tempDewpointWater temp
2015-Apr-18 06:33N 37°49' W 122°20'7 7.1
2015-Apr-18 05:33N 37°49' W 122°29'3 3.0
2015-Apr-18 04:33N 37°51' W 122°26'5 4.6
2015-Apr-18 03:31N 37°55' W 122°25'1 1.4
2015-Apr-18 02:32N 37°54' W 122°23'1 1.1
2015-Apr-18 01:33N 37°55' W 122°22'0 0.0
2015-Apr-18 00:30N 37°55' W 122°22'6 6.4
2015-Apr-17 23:33N 38°00' W 122°24'13 2.1
2015-Apr-17 17:32N 38°02' W 122°08'0 0.0
2015-Apr-17 07:33N 38°02' W 122°08'0 0.0
2015-Apr-16 08:20N 38°02' W 122°08'5 0.3
2015-Apr-15 13:32N 38°04' W 122°15'9 8.7
2015-Apr-15 12:33N 38°00' W 122°25'9 9.0
2015-Apr-15 11:33N 37°51' W 122°24'4 4.3
2015-Apr-15 10:33N 37°49' W 122°19'0 0.0
2015-Apr-15 09:33N 37°49' W 122°19'0 0.0
2015-Apr-15 08:33N 37°49' W 122°19'0 0.0
2015-Apr-15 07:33N 37°49' W 122°19'0 0.0
2015-Apr-15 06:30N 37°49' W 122°19'0 0.0
2015-Apr-15 05:33N 37°49' W 122°19'0 0.0
2015-Apr-15 04:33N 37°49' W 122°19'0 0.0
2015-Apr-15 03:33N 37°49' W 122°19'0 0.0
2015-Apr-15 02:33N 37°49' W 122°19'1 1.4
2015-Apr-15 01:33N 37°49' W 122°20'2 2.2
2015-Apr-15 00:29N 37°48' W 122°18'0 0.1
2015-Apr-14 23:33N 37°48' W 122°18'2 1.9
2015-Apr-14 22:33N 37°49' W 122°19'1 0.7
2015-Apr-14 21:33N 37°49' W 122°19'0 0.0
2015-Apr-14 20:33N 37°49' W 122°19'0 0.0
2015-Apr-14 19:33N 37°49' W 122°19'0 0.0
2015-Apr-14 18:33N 37°49' W 122°19'0 0.0
2015-Apr-14 17:33N 37°49' W 122°19'0 0.0
2015-Apr-14 16:33N 37°49' W 122°19'0 0.0
2015-Apr-14 15:33N 37°49' W 122°19'2 1.5
2015-Apr-14 14:32N 37°48' W 122°19'1 1.5
2015-Apr-14 13:33N 37°48' W 122°17'4 3.6
2015-Apr-14 12:29N 37°47' W 122°22'3 2.8
2015-Apr-14 11:33N 37°49' W 122°19'0 0.5
2015-Apr-14 10:33N 37°49' W 122°20'1 1.2
2015-Apr-14 09:31N 37°49' W 122°19'0 0.0
2015-Apr-14 08:31N 37°49' W 122°19'0 0.0
2015-Apr-14 07:31N 37°49' W 122°19'0 0.0
2015-Apr-14 06:31N 37°49' W 122°19'0 0.0
2015-Apr-14 05:31N 37°49' W 122°19'0 0.0
2015-Apr-14 04:31N 37°49' W 122°19'0 0.0
2015-Apr-14 03:31N 37°49' W 122°19'0 0.0
2015-Apr-14 02:31N 37°49' W 122°19'0 0.0
2015-Apr-14 01:31N 37°49' W 122°19'0 0.0
2015-Apr-14 00:31N 37°49' W 122°19'0 0.0
2015-Apr-13 23:31N 37°49' W 122°19'0 0.0
2015-Apr-13 22:31N 37°49' W 122°19'0 0.0
2015-Apr-13 21:31N 37°49' W 122°19'0 0.0
2015-Apr-13 20:31N 37°49' W 122°19'0 0.0
2015-Apr-13 19:31N 37°49' W 122°19'0 0.0
2015-Apr-13 18:31N 37°49' W 122°19'0 0.0
2015-Apr-13 17:31N 37°49' W 122°19'0 0.0
2015-Apr-13 16:31N 37°49' W 122°19'0 0.0
2015-Apr-13 15:31N 37°49' W 122°19'0 0.0
2015-Apr-13 14:31N 37°49' W 122°19'3 2.6
2015-Apr-13 13:33N 37°48' W 122°22'3 2.6
2015-Apr-13 12:33N 37°49' W 122°19'0 0.0
2015-Apr-13 11:33N 37°49' W 122°19'0 0.0
2015-Apr-13 10:33N 37°49' W 122°19'0 0.0
2015-Apr-13 09:33N 37°49' W 122°19'0 0.0
2015-Apr-13 08:33N 37°49' W 122°19'0 0.0
2015-Apr-13 07:30N 37°49' W 122°19'0 0.0
2015-Apr-13 06:33N 37°49' W 122°19'0 0.0
2015-Apr-13 05:30N 37°49' W 122°19'0 0.0
2015-Apr-13 04:30N 37°49' W 122°19'0 0.0
2015-Apr-13 03:33N 37°49' W 122°19'0 0.0
2015-Apr-13 02:33N 37°49' W 122°19'2 1.6
2015-Apr-13 01:34N 37°48' W 122°20'1 0.9
2015-Apr-13 00:33N 37°48' W 122°19'2 1.7
2015-Apr-12 23:33N 37°49' W 122°19'0 0.0
2015-Apr-12 22:30N 37°49' W 122°19'0 0.0
2015-Apr-12 21:33N 37°49' W 122°19'0 0.0
2015-Apr-12 20:33N 37°49' W 122°19'0 0.0
2015-Apr-12 19:33N 37°49' W 122°19'0 0.0
2015-Apr-12 18:33N 37°49' W 122°19'0 0.0
2015-Apr-12 17:33N 37°49' W 122°19'0 0.0
2015-Apr-12 16:33N 37°49' W 122°19'0 0.0
2015-Apr-12 15:33N 37°49' W 122°19'0 0.0
2015-Apr-12 14:30N 37°49' W 122°19'4 4.4
2015-Apr-12 13:32N 37°48' W 122°24'1 0.7
2015-Apr-12 12:33N 37°49' W 122°25'5 4.7
2015-Apr-12 11:33N 37°49' W 122°19'0 0.0
2015-Apr-12 10:33N 37°49' W 122°19'0 0.0
2015-Apr-12 09:33N 37°49' W 122°19'0 0.0
2015-Apr-12 08:30N 37°49' W 122°19'0 0.0
2015-Apr-12 07:33N 37°49' W 122°19'0 0.0
2015-Apr-12 06:33N 37°49' W 122°19'0 0.0
2015-Apr-12 05:33N 37°49' W 122°19'0 0.0
2015-Apr-12 04:33N 37°49' W 122°19'0 0.0
2015-Apr-12 03:33N 37°49' W 122°19'0 0.0
2015-Apr-12 02:33N 37°49' W 122°19'1 0.8
2015-Apr-12 01:33N 37°49' W 122°19'1 0.8
2015-Apr-12 00:33N 37°49' W 122°19'0 0.0
2015-Apr-11 23:30N 37°49' W 122°19'0 0.0
2015-Apr-11 22:33N 37°49' W 122°19'0 0.0
2015-Apr-11 21:33N 37°49' W 122°19'0 0.0
2015-Apr-11 20:33N 37°49' W 122°19'0 0.0
2015-Apr-11 19:33N 37°49' W 122°19'0 0.0
2015-Apr-11 18:24N 37°49' W 122°19'0 0.0
2015-Apr-11 17:33N 37°49' W 122°19'0 0.0
2015-Apr-11 16:30N 37°49' W 122°19'0 0.1
2015-Apr-11 15:33N 37°49' W 122°19'0 0.0
2015-Apr-11 14:33N 37°49' W 122°19'0 0.0
2015-Apr-11 13:33N 37°49' W 122°19'0 0.0
2015-Apr-11 12:33N 37°49' W 122°19'0 0.0
2015-Apr-11 11:33N 37°49' W 122°19'0 0.0
2015-Apr-11 10:33N 37°49' W 122°19'0 0.0
2015-Apr-11 09:33N 37°49' W 122°19'0 0.0
2015-Apr-11 08:33N 37°49' W 122°19'0 0.0
2015-Apr-11 07:33N 37°49' W 122°19'0 0.0
2015-Apr-11 06:33N 37°49' W 122°19'0 0.0
2015-Apr-11 05:33N 37°49' W 122°19'0 0.0
2015-Apr-11 04:33N 37°49' W 122°19'0 0.0
2015-Apr-11 03:33N 37°49' W 122°19'0 0.0
2015-Apr-11 02:33N 37°49' W 122°19'0 0.0
2015-Apr-11 01:33N 37°49' W 122°19'0 0.0
2015-Apr-11 00:33N 37°49' W 122°19'0 0.0
2015-Apr-10 23:33N 37°49' W 122°19'0 0.0
2015-Apr-10 22:30N 37°49' W 122°19'0 0.0
2015-Apr-10 21:33N 37°49' W 122°19'0 0.0
2015-Apr-10 20:33N 37°49' W 122°19'0 0.0
2015-Apr-10 19:33N 37°49' W 122°19'0 0.0
2015-Apr-10 18:33N 37°49' W 122°19'0 0.0
2015-Apr-10 17:33N 37°49' W 122°19'0 0.0
2015-Apr-10 16:33N 37°49' W 122°19'0 0.0
2015-Apr-10 15:33N 37°49' W 122°19'0 0.0
2015-Apr-10 14:33N 37°49' W 122°19'0 0.0
2015-Apr-10 13:33N 37°49' W 122°19'0 0.0
2015-Apr-10 12:34N 37°49' W 122°19'3 2.6
2015-Apr-10 11:33N 37°48' W 122°22'1 1.1
2015-Apr-10 10:33N 37°49' W 122°20'0 0.3
2015-Apr-10 09:32N 37°49' W 122°20'1 1.0
2015-Apr-10 08:33N 37°49' W 122°19'0 0.3
2015-Apr-10 07:33N 37°49' W 122°19'0 0.0
2015-Apr-10 06:33N 37°49' W 122°19'0 0.0
2015-Apr-10 05:33N 37°49' W 122°19'0 0.0
2015-Apr-10 04:33N 37°49' W 122°19'0 0.0
2015-Apr-10 03:33N 37°49' W 122°19'0 0.0
2015-Apr-10 02:27N 37°49' W 122°19'0 0.0
2015-Apr-10 01:33N 37°49' W 122°19'0 0.0
2015-Apr-10 00:33N 37°49' W 122°19'5 4.9
2015-Apr-09 23:33N 37°46' W 122°23'0 0.1
2015-Apr-09 22:33N 37°46' W 122°23'1 1.4
2015-Apr-09 21:33N 37°47' W 122°22'3 3.4
2015-Apr-09 20:32N 37°49' W 122°19'0 0.0
2015-Apr-09 19:32N 37°49' W 122°19'0 0.0
2015-Apr-09 18:32N 37°49' W 122°19'0 0.0
2015-Apr-09 17:32N 37°49' W 122°19'0 0.0
2015-Apr-09 16:32N 37°49' W 122°19'0 0.0
2015-Apr-09 15:32N 37°49' W 122°19'0 0.0
2015-Apr-09 14:32N 37°49' W 122°19'0 0.0
2015-Apr-09 13:32N 37°49' W 122°19'0 0.0
2015-Apr-09 12:32N 37°49' W 122°19'0 0.0
2015-Apr-09 11:32N 37°49' W 122°19'1 0.8
2015-Apr-09 10:33N 37°49' W 122°20'0 0.4
2015-Apr-09 09:34N 37°49' W 122°19'0 0.4
2015-Apr-09 08:33N 37°49' W 122°19'0 0.0
2015-Apr-09 07:33N 37°49' W 122°19'0 0.0
2015-Apr-09 06:33N 37°49' W 122°19'0 0.0
2015-Apr-09 05:33N 37°49' W 122°19'0 0.2
2015-Apr-09 04:31N 37°49' W 122°19'2 2.5
2015-Apr-09 03:33N 37°48' W 122°22'1 0.9
2015-Apr-09 02:32N 37°48' W 122°21'2 1.7
2015-Apr-09 01:34N 37°49' W 122°19'0 0.1
2015-Apr-09 00:32N 37°49' W 122°19'0 0.2
2015-Apr-08 23:32N 37°49' W 122°19'0 0.0
2015-Apr-08 22:32N 37°49' W 122°19'3 2.6
2015-Apr-08 21:33N 37°48' W 122°22'3 2.4
2015-Apr-08 20:31N 37°49' W 122°19'0 0.0
2015-Apr-08 19:31N 37°49' W 122°19'0 0.0
2015-Apr-08 18:31N 37°49' W 122°19'0 0.0
2015-Apr-08 17:31N 37°49' W 122°19'0 0.0
2015-Apr-08 16:31N 37°49' W 122°19'0 0.0
2015-Apr-08 15:31N 37°49' W 122°19'0 0.0
2015-Apr-08 14:31N 37°49' W 122°19'0 0.0
2015-Apr-08 13:31N 37°49' W 122°19'0 0.0
2015-Apr-08 12:31N 37°49' W 122°19'0 0.0
2015-Apr-08 11:31N 37°49' W 122°19'0 0.0
2015-Apr-08 10:31N 37°49' W 122°19'0 0.0
2015-Apr-08 09:31N 37°49' W 122°19'0 0.0
2015-Apr-08 08:31N 37°49' W 122°19'0 0.0
2015-Apr-08 07:31N 37°49' W 122°19'  

Dump ship's entire track history